KVYS/VYS METAR and TAF weather

Enter ICAO airport designator
Station Type Date Time Source
KVYS METAR 2020/10/20 17:35 UTC NOAA

KVYS 201735Z AUTO 09009KT 10SM OVC033 10/05 A3020 RMK AO2 T01000048


Station Type Date Time Source
KVYS Decoded METAR 2020/10/20 17:35 UTC NOAA

Peru, Illinois Valley Regional-Walter A Duncan Field Airport, IL, United States (KVYS) 41-21-07N 089-09-11W
Oct 20, 2020 - 01:35 PM EDT / 2020.10.20 1735 UTC
Wind: from the E (090 degrees) at 10 MPH (9 KT):0
Visibility: 10 mile(s):0
Sky conditions: overcast
Temperature: 50.0 F (10.0 C)
Dew Point: 40.6 F (4.8 C)
Relative Humidity: 70%
Pressure (altimeter): 30.2 in. Hg (1022 hPa)
ob: KVYS 201735Z AUTO 09009KT 10SM OVC033 10/05 A3020 RMK AO2 T01000048
cycle: 17

Station Type Date Time Source
KVYS TAF UTC NOAA

Error!

Example: see airport list